Portada
METAR-TAF:

METAR-TAF

Aeroports :

Veracruz, Mèxic

latitud: 19-09N, longitud: 096-11W, altitud: 32 m

Observació

L'informe es va fer fa 6 hores i 26 minuts, a les 03:44 UTC
Vent calma
Temperatura 28°C
Humitat 84%
Pressió 1015 hPa
Visibilitat: 11.3 km
Escasses núvols a una alçada de 25000 ft

METAR: MMVR 140344Z 00000KT 7SM FEW250 28/25 A2996 RMK 8/001 HZY DSNT TCU 3/4TH QUAD

Hora: 05:10 (10:10 UTC)

Pronòstic

L'informe es va fer fa 5 hores i 29 minuts, a les 04:41 UTC
Pronòstic vàlid del 14 a les 06 UTC al 15 a les 06 UTC
Vent 5 kt del Est
Visibilitat: 10 km
Núvols disperses a una alçada de 25000 ft
A partir de les 14 a les 1800 UTC
Vent 10 kt del Est
Visibilitat: 10 km
Núvols disperses a una alçada de 1500 ft
A partir de les 15 a les 0200 UTC
Vent 5 kt del Est
Visibilitat: 9.7 km
Núvols disperses a una alçada de 1500 ft

TAF: MMVR 140441Z 1406/1506 08005KT P6SM SCT250 TX33/1422Z TN25/1412Z FM141800 08010KT P6SM SCT015 FM150200 08005KT 6SM SCT015

Observacions i pronòstics meteorològics de més de 4000 aeroports (METAR i TAF).

Les estacions disponibles són els punts grocs i vermells al mapa.

Posi el ratolí al punt desitjat per veure el nom de l'estació.

Feu clic per veure les observacions i els pronòstics meteorològics.

Per canviar el mapa: feu clic els botons verds amb una creu de color negre per apropar; al botó verd amb un guió per allunyar la imatge; o en les fletxes verdes per a mapes adjacents.


METAR-TAF: